Terminal Aerodrome Forecast
Issued by NWS

Home | Current Version | Previous Version | Text Only | Print | Product List | Glossary On
Versions: 1 2 3 4 5 6 7 8 9 10 11 12 13 14 15 16 17 18 19 20 21
000
FTUS43 KIND 011700
TAFBMG
TAF
KBMG 011726Z 0118/0218 22014G22KT P6SM SCT025 BKN035
     FM012000 22015G21KT P6SM VCTS BKN035CB
     FM020100 21008KT P6SM SCT040 BKN120
     FM020500 22007KT 3SM -TSRA BR OVC020CB
     FM021500 25008KT 5SM BR VCSH BKN025=

USA.gov is the U.S. government's official web portal to all federal, state and local government web resources and services.